sensor_id;sensor_type;location;lat;lon;timestamp;pressure;altitude;pressure_sealevel;temperature;humidity
23281;BME280;11809;56.390;-3.266;2023-05-24T00:00:27;102046.66;;;18.22;60.79
23281;BME280;11809;56.390;-3.266;2023-05-24T00:02:54;102052.84;;;18.22;60.93
23281;BME280;11809;56.390;-3.266;2023-05-24T00:05:23;102045.88;;;18.20;61.08
23281;BME280;11809;56.390;-3.266;2023-05-24T00:07:50;102040.41;;;18.23;60.92
23281;BME280;11809;56.390;-3.266;2023-05-24T00:10:17;102033.44;;;18.20;60.84
23281;BME280;11809;56.390;-3.266;2023-05-24T00:12:44;102024.59;;;18.20;60.91
23281;BME280;11809;56.390;-3.266;2023-05-24T00:15:11;102014.97;;;18.17;60.82
23281;BME280;11809;56.390;-3.266;2023-05-24T00:17:38;102018.25;;;18.22;60.77
23281;BME280;11809;56.390;-3.266;2023-05-24T00:20:08;102011.28;;;18.20;60.67
23281;BME280;11809;56.390;-3.266;2023-05-24T00:22:38;102007.91;;;18.16;60.93
23281;BME280;11809;56.390;-3.266;2023-05-24T00:25:05;102014.97;;;18.17;60.76
23281;BME280;11809;56.390;-3.266;2023-05-24T00:27:32;102022.97;;;18.17;60.85
23281;BME280;11809;56.390;-3.266;2023-05-24T00:29:59;102022.97;;;18.17;60.67
23281;BME280;11809;56.390;-3.266;2023-05-24T00:32:26;102029.34;;;18.13;60.67
23281;BME280;11809;56.390;-3.266;2023-05-24T00:34:53;102028.56;;;18.11;60.92
23281;BME280;11809;56.390;-3.266;2023-05-24T00:37:20;102032.78;;;18.15;60.80
23281;BME280;11809;56.390;-3.266;2023-05-24T00:39:47;102035.63;;;18.12;60.63
23281;BME280;11809;56.390;-3.266;2023-05-24T00:42:14;102038.44;;;18.09;60.70
23281;BME280;11809;56.390;-3.266;2023-05-24T00:44:41;102041.16;;;18.07;60.75
23281;BME280;11809;56.390;-3.266;2023-05-24T00:47:08;102045.63;;;18.07;60.95
23281;BME280;11809;56.390;-3.266;2023-05-24T00:49:36;102054.31;;;18.10;60.85
23281;BME280;11809;56.390;-3.266;2023-05-24T00:52:03;102049.94;;;18.09;60.58
23281;BME280;11809;56.390;-3.266;2023-05-24T00:54:30;102037.72;;;18.05;60.64
23281;BME280;11809;56.390;-3.266;2023-05-24T00:56:57;102033.25;;;18.06;60.79
23281;BME280;11809;56.390;-3.266;2023-05-24T00:59:24;102023.63;;;18.03;60.79
23281;BME280;11809;56.390;-3.266;2023-05-24T01:01:52;102011.97;;;18.06;60.70
23281;BME280;11809;56.390;-3.266;2023-05-24T01:04:21;102011.88;;;18.07;60.78
23281;BME280;11809;56.390;-3.266;2023-05-24T01:09:17;102021.50;;;18.10;60.57
23281;BME280;11809;56.390;-3.266;2023-05-24T01:27:23;101991.00;;;18.00;60.52
23281;BME280;11809;56.390;-3.266;2023-05-24T01:29:51;101992.72;;;18.01;60.47
23281;BME280;11809;56.390;-3.266;2023-05-24T01:32:21;101988.31;;;18.00;60.55
23281;BME280;11809;56.390;-3.266;2023-05-24T01:34:48;101987.47;;;17.99;60.52
23281;BME280;11809;56.390;-3.266;2023-05-24T01:37:15;101983.00;;;18.00;60.67
23281;BME280;11809;56.390;-3.266;2023-05-24T01:39:42;101991.00;;;18.00;60.55
23281;BME280;11809;56.390;-3.266;2023-05-24T01:45:03;101991.13;;;17.97;60.57
23281;BME280;11809;56.390;-3.266;2023-05-24T01:53:08;101988.63;;;17.94;60.61
23281;BME280;11809;56.390;-3.266;2023-05-24T01:55:35;101990.50;;;17.92;60.76
23281;BME280;11809;56.390;-3.266;2023-05-24T01:58:03;101987.06;;;17.90;60.53
23281;BME280;11809;56.390;-3.266;2023-05-24T02:00:31;102001.16;;;17.92;60.54
23281;BME280;11809;56.390;-3.266;2023-05-24T02:02:59;102000.38;;;17.90;60.55
23281;BME280;11809;56.390;-3.266;2023-05-24T02:05:27;101984.56;;;17.87;60.68
23281;BME280;11809;56.390;-3.266;2023-05-24T02:07:54;101987.22;;;17.87;60.56
23281;BME280;11809;56.390;-3.266;2023-05-24T02:10:21;101988.13;;;17.86;60.64
23281;BME280;11809;56.390;-3.266;2023-05-24T02:12:49;101989.16;;;17.83;60.74
23281;BME280;11809;56.390;-3.266;2023-05-24T02:15:16;101997.06;;;17.85;60.63
23281;BME280;11809;56.390;-3.266;2023-05-24T02:17:42;101988.31;;;17.83;60.68
23281;BME280;11809;56.390;-3.266;2023-05-24T02:20:11;101983.16;;;17.80;60.54
23281;BME280;11809;56.390;-3.266;2023-05-24T02:22:39;101989.31;;;17.80;60.75
23281;BME280;11809;56.390;-3.266;2023-05-24T02:25:06;101994.69;;;17.79;60.73
23281;BME280;11809;56.390;-3.266;2023-05-24T02:27:33;102001.81;;;17.78;60.73
23281;BME280;11809;56.390;-3.266;2023-05-24T02:30:00;101994.84;;;17.76;60.62
23281;BME280;11809;56.390;-3.266;2023-05-24T02:32:27;101983.28;;;17.77;60.77
23281;BME280;11809;56.390;-3.266;2023-05-24T02:34:54;101982.50;;;17.75;60.61
23281;BME280;11809;56.390;-3.266;2023-05-24T02:37:21;101978.13;;;17.74;60.77
23281;BME280;11809;56.390;-3.266;2023-05-24T02:39:48;101987.97;;;17.72;60.79
23281;BME280;11809;56.390;-3.266;2023-05-24T02:42:15;101997.66;;;17.73;60.74
23281;BME280;11809;56.390;-3.266;2023-05-24T02:44:42;101998.59;;;17.72;60.79
23281;BME280;11809;56.390;-3.266;2023-05-24T02:47:09;101996.88;;;17.71;60.77
23281;BME280;11809;56.390;-3.266;2023-05-24T02:49:36;102001.41;;;17.69;60.81
23281;BME280;11809;56.390;-3.266;2023-05-24T02:52:02;101996.09;;;17.69;60.83
23281;BME280;11809;56.390;-3.266;2023-05-24T02:54:29;101993.56;;;17.66;60.78
23281;BME280;11809;56.390;-3.266;2023-05-24T02:56:56;101993.56;;;17.66;60.74
23281;BME280;11809;56.390;-3.266;2023-05-24T02:59:23;101991.84;;;17.65;60.63
23281;BME280;11809;56.390;-3.266;2023-05-24T03:01:50;101995.38;;;17.65;60.68
23281;BME280;11809;56.390;-3.266;2023-05-24T03:04:17;101982.16;;;17.64;60.69
23281;BME280;11809;56.390;-3.266;2023-05-24T03:06:44;101988.50;;;17.61;60.78
23281;BME280;11809;56.390;-3.266;2023-05-24T03:09:11;102000.91;;;17.61;60.71
23281;BME280;11809;56.390;-3.266;2023-05-24T03:11:38;102000.91;;;17.61;60.79
23281;BME280;11809;56.390;-3.266;2023-05-24T03:14:05;101991.28;;;17.58;60.83
23281;BME280;11809;56.390;-3.266;2023-05-24T03:16:32;101986.91;;;17.57;60.65
23281;BME280;11809;56.390;-3.266;2023-05-24T03:18:59;101991.34;;;17.56;60.76
23281;BME280;11809;56.390;-3.266;2023-05-24T03:21:26;101990.66;;;17.53;60.77
23281;BME280;11809;56.390;-3.266;2023-05-24T03:23:53;101987.91;;;17.54;60.75
23281;BME280;11809;56.390;-3.266;2023-05-24T03:26:19;101988.00;;;17.51;60.82
23281;BME280;11809;56.390;-3.266;2023-05-24T03:28:47;101997.09;;;17.47;60.77
23281;BME280;11809;56.390;-3.266;2023-05-24T03:31:16;101993.56;;;17.47;60.85
23281;BME280;11809;56.390;-3.266;2023-05-24T03:33:43;101996.31;;;17.45;60.79
23281;BME280;11809;56.390;-3.266;2023-05-24T03:36:10;101997.22;;;17.44;60.82
23281;BME280;11809;56.390;-3.266;2023-05-24T03:38:37;101995.50;;;17.43;60.88
23281;BME280;11809;56.390;-3.266;2023-05-24T03:41:04;102000.75;;;17.45;60.86
23281;BME280;11809;56.390;-3.266;2023-05-24T03:43:31;102006.13;;;17.43;60.72
23281;BME280;11809;56.390;-3.266;2023-05-24T03:45:58;102017.84;;;17.39;60.70
23281;BME280;11809;56.390;-3.266;2023-05-24T03:48:25;102021.28;;;17.41;60.81
23281;BME280;11809;56.390;-3.266;2023-05-24T03:50:51;102026.69;;;17.40;60.76
23281;BME280;11809;56.390;-3.266;2023-05-24T03:53:19;102029.41;;;17.38;60.78
23281;BME280;11809;56.390;-3.266;2023-05-24T03:55:48;102018.75;;;17.38;60.72
23281;BME280;11809;56.390;-3.266;2023-05-24T03:58:15;102021.50;;;17.37;60.79
23281;BME280;11809;56.390;-3.266;2023-05-24T04:00:42;102024.22;;;17.35;60.83
23281;BME280;11809;56.390;-3.266;2023-05-24T04:03:09;102020.63;;;17.36;60.83
23281;BME280;11809;56.390;-3.266;2023-05-24T04:05:37;102024.22;;;17.35;60.79
23281;BME280;11809;56.390;-3.266;2023-05-24T04:08:04;102018.13;;;17.33;60.78
23281;BME280;11809;56.390;-3.266;2023-05-24T04:10:32;102011.00;;;17.34;60.92
23281;BME280;11809;56.390;-3.266;2023-05-24T04:12:58;102001.38;;;17.31;60.79
23281;BME280;11809;56.390;-3.266;2023-05-24T04:15:26;101991.69;;;17.30;60.77
23281;BME280;11809;56.390;-3.266;2023-05-24T04:17:53;101992.63;;;17.29;60.72
23281;BME280;11809;56.390;-3.266;2023-05-24T04:20:21;101995.28;;;17.29;60.73
23281;BME280;11809;56.390;-3.266;2023-05-24T04:22:53;102006.84;;;17.28;60.71
23281;BME280;11809;56.390;-3.266;2023-05-24T04:25:20;102005.19;;;17.26;60.83
23281;BME280;11809;56.390;-3.266;2023-05-24T04:27:47;102020.25;;;17.25;60.93
23281;BME280;11809;56.390;-3.266;2023-05-24T04:30:14;102014.78;;;17.10;56.69
23281;BME280;11809;56.390;-3.266;2023-05-24T04:32:42;102022.16;;;16.84;55.50
23281;BME280;11809;56.390;-3.266;2023-05-24T04:35:12;102023.50;;;16.93;58.84
23281;BME280;11809;56.390;-3.266;2023-05-24T04:37:39;102027.63;;;17.00;59.17
23281;BME280;11809;56.390;-3.266;2023-05-24T04:40:06;102021.19;;;17.06;59.48
23281;BME280;11809;56.390;-3.266;2023-05-24T04:42:34;102023.84;;;17.06;60.05
23281;BME280;11809;56.390;-3.266;2023-05-24T04:45:01;102031.59;;;17.10;59.77
23281;BME280;11809;56.390;-3.266;2023-05-24T04:47:28;102024.38;;;17.14;60.20
23281;BME280;11809;56.390;-3.266;2023-05-24T04:49:55;102038.34;;;17.17;60.80
23281;BME280;11809;56.390;-3.266;2023-05-24T04:52:22;102039.22;;;17.18;61.74
23281;BME280;11809;56.390;-3.266;2023-05-24T04:54:49;102039.44;;;17.13;61.78
23281;BME280;11809;56.390;-3.266;2023-05-24T04:57:16;102043.53;;;17.20;61.58
23281;BME280;11809;56.390;-3.266;2023-05-24T04:59:43;102041.88;;;17.18;61.39
23281;BME280;11809;56.390;-3.266;2023-05-24T05:02:10;102030.50;;;17.14;61.98
23281;BME280;11809;56.390;-3.266;2023-05-24T05:04:37;102029.72;;;17.12;62.69
23281;BME280;11809;56.390;-3.266;2023-05-24T05:07:04;102032.47;;;17.11;63.26
23281;BME280;11809;56.390;-3.266;2023-05-24T05:09:31;102029.88;;;17.09;63.16
23281;BME280;11809;56.390;-3.266;2023-05-24T05:11:58;102038.25;;;17.00;60.45
23281;BME280;11809;56.390;-3.266;2023-05-24T05:14:25;102047.75;;;17.06;62.64
23281;BME280;11809;56.390;-3.266;2023-05-24T05:16:52;102042.34;;;17.07;62.91
23281;BME280;11809;56.390;-3.266;2023-05-24T05:19:19;102040.31;;;17.14;63.97
23281;BME280;11809;56.390;-3.266;2023-05-24T05:21:46;102031.13;;;17.21;64.08
23281;BME280;11809;56.390;-3.266;2023-05-24T05:24:14;102028.25;;;17.25;64.15
23281;BME280;11809;56.390;-3.266;2023-05-24T05:26:41;102034.06;;;17.33;64.09
23281;BME280;11809;56.390;-3.266;2023-05-24T05:29:08;102040.88;;;17.39;63.81
23281;BME280;11809;56.390;-3.266;2023-05-24T05:31:35;102041.63;;;17.42;63.39
23281;BME280;11809;56.390;-3.266;2023-05-24T05:34:02;102052.38;;;17.39;63.92
23281;BME280;11809;56.390;-3.266;2023-05-24T05:36:29;102049.88;;;17.36;63.74
23281;BME280;11809;56.390;-3.266;2023-05-24T05:38:56;102056.06;;;17.37;63.67
23281;BME280;11809;56.390;-3.266;2023-05-24T05:41:23;102056.97;;;17.36;63.36
23281;BME280;11809;56.390;-3.266;2023-05-24T05:43:50;102068.59;;;17.33;63.12
23281;BME280;11809;56.390;-3.266;2023-05-24T05:46:17;102062.50;;;17.31;63.05
23281;BME280;11809;56.390;-3.266;2023-05-24T05:48:46;102072.22;;;17.32;62.89
23281;BME280;11809;56.390;-3.266;2023-05-24T05:51:13;102073.13;;;17.31;62.76
23281;BME280;11809;56.390;-3.266;2023-05-24T05:53:40;102075.78;;;17.31;62.62
23281;BME280;11809;56.390;-3.266;2023-05-24T05:56:07;102080.09;;;17.34;62.70
23281;BME280;11809;56.390;-3.266;2023-05-24T05:58:34;102079.19;;;17.35;62.38
23281;BME280;11809;56.390;-3.266;2023-05-24T06:01:01;102079.22;;;17.33;62.42
23281;BME280;11809;56.390;-3.266;2023-05-24T06:03:28;102091.47;;;17.37;62.57
23281;BME280;11809;56.390;-3.266;2023-05-24T06:05:55;102091.47;;;17.37;62.27
23281;BME280;11809;56.390;-3.266;2023-05-24T06:08:22;102080.03;;;17.35;61.98
23281;BME280;11809;56.390;-3.266;2023-05-24T06:10:49;102089.81;;;17.35;61.90
23281;BME280;11809;56.390;-3.266;2023-05-24T06:13:18;102095.97;;;17.35;61.82
23281;BME280;11809;56.390;-3.266;2023-05-24T06:15:47;102101.38;;;17.34;61.77
23281;BME280;11809;56.390;-3.266;2023-05-24T06:18:15;102106.69;;;17.34;61.67
23281;BME280;11809;56.390;-3.266;2023-05-24T06:20:42;102106.69;;;17.34;61.69
23281;BME280;11809;56.390;-3.266;2023-05-24T06:23:11;102103.22;;;17.32;61.82
23281;BME280;11809;56.390;-3.266;2023-05-24T06:25:37;102104.25;;;17.29;61.80
23281;BME280;11809;56.390;-3.266;2023-05-24T06:28:06;102106.75;;;17.32;61.59
23281;BME280;11809;56.390;-3.266;2023-05-24T06:30:32;102097.06;;;17.31;61.56
23281;BME280;11809;56.390;-3.266;2023-05-24T06:33:00;102095.91;;;17.37;61.94
23281;BME280;11809;56.390;-3.266;2023-05-24T06:35:28;102089.59;;;17.39;62.22
23281;BME280;11809;56.390;-3.266;2023-05-24T06:37:55;102091.47;;;17.37;62.26
23281;BME280;11809;56.390;-3.266;2023-05-24T06:40:25;102091.66;;;17.33;62.46
23281;BME280;11809;56.390;-3.266;2023-05-24T06:42:52;102099.72;;;17.31;62.42
23281;BME280;11809;56.390;-3.266;2023-05-24T06:45:19;102096.91;;;17.34;62.84
23281;BME280;11809;56.390;-3.266;2023-05-24T06:47:46;102097.69;;;17.36;62.65
23281;BME280;11809;56.390;-3.266;2023-05-24T06:50:13;102097.78;;;17.35;63.08
23281;BME280;11809;56.390;-3.266;2023-05-24T06:52:40;102100.50;;;17.33;63.01
23281;BME280;11809;56.390;-3.266;2023-05-24T06:55:07;102104.09;;;17.32;63.33
23281;BME280;11809;56.390;-3.266;2023-05-24T06:57:35;102111.22;;;17.32;63.28
23281;BME280;11809;56.390;-3.266;2023-05-24T07:00:02;102120.09;;;17.31;63.29
23281;BME280;11809;56.390;-3.266;2023-05-24T07:02:34;102118.31;;;17.31;63.33
23281;BME280;11809;56.390;-3.266;2023-05-24T07:05:02;102112.91;;;17.33;63.07
23281;BME280;11809;56.390;-3.266;2023-05-24T07:07:29;102105.81;;;17.33;63.39
23281;BME280;11809;56.390;-3.266;2023-05-24T07:09:56;102109.41;;;17.32;63.35
23281;BME280;11809;56.390;-3.266;2023-05-24T07:12:23;102105.81;;;17.33;63.36
23281;BME280;11809;56.390;-3.266;2023-05-24T07:14:50;102105.81;;;17.33;63.17
23281;BME280;11809;56.390;-3.266;2023-05-24T07:17:17;102105.81;;;17.33;63.00
23281;BME280;11809;56.390;-3.266;2023-05-24T07:19:44;102112.88;;;17.34;63.19
23281;BME280;11809;56.390;-3.266;2023-05-24T07:22:11;102125.38;;;17.32;63.09
23281;BME280;11809;56.390;-3.266;2023-05-24T07:24:38;102128.81;;;17.34;63.19
23281;BME280;11809;56.390;-3.266;2023-05-24T07:27:05;102128.81;;;17.34;62.94
23281;BME280;11809;56.390;-3.266;2023-05-24T07:29:32;102130.59;;;17.34;63.08
23281;BME280;11809;56.390;-3.266;2023-05-24T07:31:59;102127.94;;;17.34;63.23
23281;BME280;11809;56.390;-3.266;2023-05-24T07:34:27;102124.34;;;17.35;63.05
23281;BME280;11809;56.390;-3.266;2023-05-24T07:36:56;102135.78;;;17.37;63.26
23281;BME280;11809;56.390;-3.266;2023-05-24T07:39:26;102134.91;;;17.36;62.87
23281;BME280;11809;56.390;-3.266;2023-05-24T07:41:53;102139.31;;;17.37;63.22
23281;BME280;11809;56.390;-3.266;2023-05-24T07:44:20;102142.88;;;17.36;63.01
23281;BME280;11809;56.390;-3.266;2023-05-24T07:46:48;102139.34;;;17.36;62.87
23281;BME280;11809;56.390;-3.266;2023-05-24T07:49:15;102142.88;;;17.36;63.18
23281;BME280;11809;56.390;-3.266;2023-05-24T07:51:42;102150.84;;;17.36;63.01
23281;BME280;11809;56.390;-3.266;2023-05-24T07:54:09;102143.88;;;17.34;62.88
23281;BME280;11809;56.390;-3.266;2023-05-24T07:56:36;102151.72;;;17.37;62.86
23281;BME280;11809;56.390;-3.266;2023-05-24T07:59:04;102147.31;;;17.36;62.80
23281;BME280;11809;56.390;-3.266;2023-05-24T08:01:34;102146.47;;;17.35;62.95
23281;BME280;11809;56.390;-3.266;2023-05-24T08:04:01;102153.50;;;17.36;63.05
23281;BME280;11809;56.390;-3.266;2023-05-24T08:06:31;102151.78;;;17.35;62.89
23281;BME280;11809;56.390;-3.266;2023-05-24T08:08:58;102148.94;;;17.40;62.69
23281;BME280;11809;56.390;-3.266;2023-05-24T08:11:26;102150.38;;;17.47;62.50
23281;BME280;11809;56.390;-3.266;2023-05-24T08:13:53;102142.88;;;17.56;62.15
23281;BME280;11809;56.390;-3.266;2023-05-24T08:16:20;102139.22;;;17.78;61.70
23281;BME280;11809;56.390;-3.266;2023-05-24T08:18:47;102147.56;;;17.89;61.10
23281;BME280;11809;56.390;-3.266;2023-05-24T08:21:17;102146.88;;;17.85;61.30
23281;BME280;11809;56.390;-3.266;2023-05-24T08:23:44;102144.22;;;18.04;60.73
23281;BME280;11809;56.390;-3.266;2023-05-24T08:26:11;102143.06;;;18.09;60.63
23281;BME280;11809;56.390;-3.266;2023-05-24T08:28:38;102141.38;;;18.26;60.20
23281;BME280;11809;56.390;-3.266;2023-05-24T08:31:05;102136.75;;;18.29;60.15
23281;BME280;11809;56.390;-3.266;2023-05-24T08:33:33;102139.91;;;18.37;59.88
23281;BME280;11809;56.390;-3.266;2023-05-24T08:36:00;102143.34;;;18.39;59.95
23281;BME280;11809;56.390;-3.266;2023-05-24T08:38:27;102136.19;;;18.41;59.57
23281;BME280;11809;56.390;-3.266;2023-05-24T08:40:55;102133.66;;;18.38;59.84
23281;BME280;11809;56.390;-3.266;2023-05-24T08:43:22;102147.66;;;18.42;59.68
23281;BME280;11809;56.390;-3.266;2023-05-24T08:45:49;102144.09;;;18.43;59.81
23281;BME280;11809;56.390;-3.266;2023-05-24T08:48:20;102155.44;;;18.46;59.53
23281;BME280;11809;56.390;-3.266;2023-05-24T08:50:47;102151.88;;;18.47;59.50
23281;BME280;11809;56.390;-3.266;2023-05-24T08:53:15;102150.00;;;18.49;59.42
23281;BME280;11809;56.390;-3.266;2023-05-24T08:55:42;102144.69;;;18.49;59.61
23281;BME280;11809;56.390;-3.266;2023-05-24T08:58:10;102146.66;;;18.44;59.58
23281;BME280;11809;56.390;-3.266;2023-05-24T09:00:37;102143.31;;;18.41;59.81
23281;BME280;11809;56.390;-3.266;2023-05-24T09:03:04;102153.09;;;18.40;59.82
23281;BME280;11809;56.390;-3.266;2023-05-24T09:05:32;102150.34;;;18.42;59.90
23281;BME280;11809;56.390;-3.266;2023-05-24T09:07:59;102137.63;;;18.48;59.91
23281;BME280;11809;56.390;-3.266;2023-05-24T09:10:28;102143.59;;;18.53;59.74
23281;BME280;11809;56.390;-3.266;2023-05-24T09:13:15;102134.03;;;18.49;59.85
23281;BME280;11809;56.390;-3.266;2023-05-24T09:15:43;102126.88;;;18.50;59.63
23281;BME280;11809;56.390;-3.266;2023-05-24T09:18:10;102137.88;;;18.42;59.67
23281;BME280;11809;56.390;-3.266;2023-05-24T09:20:37;102128.53;;;18.34;60.01
23281;BME280;11809;56.390;-3.266;2023-05-24T09:23:04;102140.88;;;18.36;59.82
23281;BME280;11809;56.390;-3.266;2023-05-24T09:25:33;102138.91;;;18.40;59.84
23281;BME280;11809;56.390;-3.266;2023-05-24T09:28:04;102145.34;;;18.36;59.88
23281;BME280;11809;56.390;-3.266;2023-05-24T09:30:31;102145.47;;;18.33;60.03
23281;BME280;11809;56.390;-3.266;2023-05-24T09:32:59;102150.31;;;18.25;60.35
23281;BME280;11809;56.390;-3.266;2023-05-24T09:35:27;102154.03;;;18.21;60.43
23281;BME280;11809;56.390;-3.266;2023-05-24T09:37:54;102150.88;;;18.12;60.57
23281;BME280;11809;56.390;-3.266;2023-05-24T09:40:23;102152.75;;;18.10;60.67
23281;BME280;11809;56.390;-3.266;2023-05-24T09:43:06;102152.09;;;18.05;60.77
23281;BME280;11809;56.390;-3.266;2023-05-24T09:45:44;102154.03;;;18.02;60.71
23281;BME280;11809;56.390;-3.266;2023-05-24T09:48:15;102151.59;;;17.97;60.72
23281;BME280;11809;56.390;-3.266;2023-05-24T09:50:59;102154.34;;;17.96;60.80
23281;BME280;11809;56.390;-3.266;2023-05-24T09:53:28;102159.66;;;17.96;60.83
23281;BME280;11809;56.390;-3.266;2023-05-24T09:55:56;102160.69;;;17.93;60.98
23281;BME280;11809;56.390;-3.266;2023-05-24T09:58:23;102157.16;;;17.93;61.11
23281;BME280;11809;56.390;-3.266;2023-05-24T10:01:02;102153.63;;;17.92;61.07
23281;BME280;11809;56.390;-3.266;2023-05-24T10:03:30;102159.09;;;17.89;61.28
23281;BME280;11809;56.390;-3.266;2023-05-24T10:05:57;102160.97;;;17.87;61.13
23281;BME280;11809;56.390;-3.266;2023-05-24T10:08:25;102154.84;;;17.85;61.12
23281;BME280;11809;56.390;-3.266;2023-05-24T10:10:54;102146.88;;;17.85;61.11
23281;BME280;11809;56.390;-3.266;2023-05-24T10:13:21;102140.69;;;17.85;61.12
23281;BME280;11809;56.390;-3.266;2023-05-24T10:15:49;102139.81;;;17.84;61.31
23281;BME280;11809;56.390;-3.266;2023-05-24T10:18:17;102144.28;;;17.84;61.32
23281;BME280;11809;56.390;-3.266;2023-05-24T10:20:44;102142.56;;;17.83;61.37
23281;BME280;11809;56.390;-3.266;2023-05-24T10:23:14;102138.25;;;17.80;61.26
23281;BME280;11809;56.390;-3.266;2023-05-24T10:25:45;102135.41;;;17.83;61.29
23281;BME280;11809;56.390;-3.266;2023-05-24T10:28:16;102132.84;;;17.82;61.34
23281;BME280;11809;56.390;-3.266;2023-05-24T10:33:46;102133.72;;;17.82;61.17
23281;BME280;11809;56.390;-3.266;2023-05-24T10:36:14;102122.22;;;17.82;61.22
23281;BME280;11809;56.390;-3.266;2023-05-24T10:38:42;102127.66;;;17.79;61.29
23281;BME280;11809;56.390;-3.266;2023-05-24T10:41:12;102130.31;;;17.79;61.34
23281;BME280;11809;56.390;-3.266;2023-05-24T10:43:40;102125.00;;;17.79;61.29
23281;BME280;11809;56.390;-3.266;2023-05-24T10:46:31;102124.13;;;17.78;61.40
23281;BME280;11809;56.390;-3.266;2023-05-24T10:48:59;102124.13;;;17.78;61.30
23281;BME280;11809;56.390;-3.266;2023-05-24T10:51:33;102128.75;;;17.75;61.27
23281;BME280;11809;56.390;-3.266;2023-05-24T10:54:12;102131.34;;;17.76;61.26
23281;BME280;11809;56.390;-3.266;2023-05-24T10:56:40;102129.47;;;17.78;61.54
23281;BME280;11809;56.390;-3.266;2023-05-24T10:59:08;102136.50;;;17.79;61.32
23281;BME280;11809;56.390;-3.266;2023-05-24T11:01:35;102136.44;;;17.81;61.43
23281;BME280;11809;56.390;-3.266;2023-05-24T11:04:09;102132.97;;;17.79;61.58
23281;BME280;11809;56.390;-3.266;2023-05-24T11:06:44;102122.28;;;17.80;61.38
23281;BME280;11809;56.390;-3.266;2023-05-24T11:09:11;102128.53;;;17.79;61.48
23281;BME280;11809;56.390;-3.266;2023-05-24T11:11:38;102133.63;;;17.84;61.47
23281;BME280;11809;56.390;-3.266;2023-05-24T11:14:05;102130.91;;;17.85;61.24
23281;BME280;11809;56.390;-3.266;2023-05-24T11:16:38;102126.88;;;17.95;61.65
23281;BME280;11809;56.390;-3.266;2023-05-24T11:21:52;102123.22;;;17.98;59.06
23281;BME280;11809;56.390;-3.266;2023-05-24T11:24:19;102120.47;;;17.99;60.02
23281;BME280;11809;56.390;-3.266;2023-05-24T11:26:48;102122.94;;;18.04;60.43
23281;BME280;11809;56.390;-3.266;2023-05-24T11:29:15;102118.41;;;18.06;60.25
23281;BME280;11809;56.390;-3.266;2023-05-24T11:31:47;102123.72;;;18.06;60.62
23281;BME280;11809;56.390;-3.266;2023-05-24T11:34:14;102119.91;;;18.11;60.59
23281;BME280;11809;56.390;-3.266;2023-05-24T11:36:41;102120.81;;;18.10;60.55
23281;BME280;11809;56.390;-3.266;2023-05-24T11:39:08;102126.72;;;18.17;60.65
23281;BME280;11809;56.390;-3.266;2023-05-24T11:41:38;102115.13;;;18.18;61.00
23281;BME280;11809;56.390;-3.266;2023-05-24T11:44:06;102120.44;;;18.18;61.18
23281;BME280;11809;56.390;-3.266;2023-05-24T11:46:34;102121.25;;;18.20;60.84
23281;BME280;11809;56.390;-3.266;2023-05-24T11:49:01;102122.03;;;18.22;61.05
23281;BME280;11809;56.390;-3.266;2023-05-24T11:51:30;102122.91;;;18.23;61.00
23281;BME280;11809;56.390;-3.266;2023-05-24T11:53:57;102128.94;;;18.26;60.98
23281;BME280;11809;56.390;-3.266;2023-05-24T11:56:25;102133.97;;;18.32;60.94
23281;BME280;11809;56.390;-3.266;2023-05-24T12:01:43;102135.91;;;18.29;60.98
23281;BME280;11809;56.390;-3.266;2023-05-24T12:04:10;102132.47;;;18.27;61.31
23281;BME280;11809;56.390;-3.266;2023-05-24T12:06:41;102138.69;;;18.26;61.10
23281;BME280;11809;56.390;-3.266;2023-05-24T12:09:09;102136.13;;;18.24;61.60
23281;BME280;11809;56.390;-3.266;2023-05-24T12:11:39;102131.81;;;18.22;61.62
23281;BME280;11809;56.390;-3.266;2023-05-24T12:14:10;102138.06;;;18.21;61.82
23281;BME280;11809;56.390;-3.266;2023-05-24T12:16:38;102137.50;;;18.33;61.27
23281;BME280;11809;56.390;-3.266;2023-05-24T12:19:05;102131.88;;;18.39;61.13
23281;BME280;11809;56.390;-3.266;2023-05-24T12:21:45;102145.81;;;18.44;60.71
23281;BME280;11809;56.390;-3.266;2023-05-24T12:24:13;102142.53;;;18.39;60.90
23281;BME280;11809;56.390;-3.266;2023-05-24T12:26:45;102145.25;;;18.37;61.35
23281;BME280;11809;56.390;-3.266;2023-05-24T12:29:12;102139.00;;;18.38;60.97
23281;BME280;11809;56.390;-3.266;2023-05-24T12:31:40;102138.22;;;18.36;60.84
23281;BME280;11809;56.390;-3.266;2023-05-24T12:34:25;102144.31;;;18.38;60.75
23281;BME280;11809;56.390;-3.266;2023-05-24T12:36:54;102143.34;;;18.39;60.81
23281;BME280;11809;56.390;-3.266;2023-05-24T12:39:25;102132.66;;;18.41;60.88
23281;BME280;11809;56.390;-3.266;2023-05-24T12:41:57;102132.56;;;18.42;60.63
23281;BME280;11809;56.390;-3.266;2023-05-24T12:44:25;102142.97;;;18.48;60.66
23281;BME280;11809;56.390;-3.266;2023-05-24T12:46:53;102148.28;;;18.48;60.64
23281;BME280;11809;56.390;-3.266;2023-05-24T12:49:20;102153.59;;;18.48;60.67
23281;BME280;11809;56.390;-3.266;2023-05-24T12:51:48;102136.75;;;18.48;60.57
23281;BME280;11809;56.390;-3.266;2023-05-24T12:54:18;102144.00;;;18.44;60.60
23281;BME280;11809;56.390;-3.266;2023-05-24T12:56:45;102146.75;;;18.43;60.69
23281;BME280;11809;56.390;-3.266;2023-05-24T12:59:13;102140.56;;;18.42;60.77
23281;BME280;11809;56.390;-3.266;2023-05-24T13:01:40;102142.28;;;18.43;60.74
23281;BME280;11809;56.390;-3.266;2023-05-24T13:04:08;102140.28;;;18.48;60.82
23281;BME280;11809;56.390;-3.266;2023-05-24T13:06:36;102140.06;;;18.53;60.55
23281;BME280;11809;56.390;-3.266;2023-05-24T13:09:04;102147.03;;;18.55;60.58
23281;BME280;11809;56.390;-3.266;2023-05-24T13:11:32;102141.78;;;18.54;60.77
23281;BME280;11809;56.390;-3.266;2023-05-24T13:13:59;102133.66;;;18.57;60.64
23281;BME280;11809;56.390;-3.266;2023-05-24T13:16:26;102127.31;;;18.59;60.78
23281;BME280;11809;56.390;-3.266;2023-05-24T13:18:53;102119.19;;;18.62;61.06